createdAt,value
2022-08-28T00:00:24.052Z,5.55
2022-08-28T00:02:50.406Z,5.70
2022-08-28T00:05:16.832Z,4.38
2022-08-28T00:07:47.505Z,5.15
2022-08-28T00:10:16.323Z,5.22
2022-08-28T00:12:43.548Z,5.82
2022-08-28T00:15:09.843Z,4.82
2022-08-28T00:17:39.779Z,5.55
2022-08-28T00:20:06.092Z,6.50
2022-08-28T00:22:32.384Z,5.20
2022-08-28T00:24:58.679Z,6.65
2022-08-28T00:27:43.701Z,6.82
2022-08-28T00:30:10.402Z,7.32
2022-08-28T00:32:36.724Z,7.60
2022-08-28T00:35:03.080Z,8.02
2022-08-28T00:37:29.403Z,9.55
2022-08-28T00:39:55.781Z,9.73
2022-08-28T00:42:22.671Z,9.37
2022-08-28T00:44:49.099Z,8.93
2022-08-28T00:47:15.428Z,10.30
2022-08-28T00:49:41.741Z,9.70
2022-08-28T00:52:11.780Z,10.88
2022-08-28T00:54:38.670Z,9.35
2022-08-28T00:57:04.984Z,10.57
2022-08-28T00:59:31.290Z,9.73
2022-08-28T01:01:57.812Z,9.73
2022-08-28T01:04:24.159Z,10.27
2022-08-28T01:06:53.504Z,8.63
2022-08-28T01:09:21.090Z,9.20
2022-08-28T01:11:47.496Z,9.82
2022-08-28T01:14:13.794Z,9.02
2022-08-28T01:16:40.120Z,10.02
2022-08-28T01:19:06.907Z,9.90
2022-08-28T01:21:33.327Z,10.63
2022-08-28T01:23:59.627Z,11.43
2022-08-28T01:26:25.935Z,10.52
2022-08-28T01:28:52.244Z,11.18
2022-08-28T01:31:18.675Z,11.00
2022-08-28T01:33:45.011Z,10.60
2022-08-28T01:36:12.526Z,9.77
2022-08-28T01:38:38.832Z,10.38
2022-08-28T01:41:05.148Z,9.38
2022-08-28T01:43:31.666Z,8.57
2022-08-28T01:45:58.541Z,9.30
2022-08-28T01:48:24.836Z,9.25
2022-08-28T01:50:51.158Z,8.85
2022-08-28T01:53:17.468Z,9.23
2022-08-28T01:55:43.779Z,8.73
2022-08-28T01:58:10.215Z,8.32
2022-08-28T02:00:36.897Z,9.10
2022-08-28T02:03:03.199Z,8.88
2022-08-28T02:05:30.369Z,10.13
2022-08-28T02:07:57.174Z,9.65
2022-08-28T02:10:24.668Z,10.02
2022-08-28T02:12:51.234Z,10.60
2022-08-28T02:15:17.574Z,12.77
2022-08-28T02:17:45.113Z,12.35
2022-08-28T02:20:11.417Z,12.70
2022-08-28T02:22:37.720Z,12.57
2022-08-28T02:25:04.074Z,13.18
2022-08-28T02:27:30.959Z,13.45
2022-08-28T02:29:58.656Z,14.13
2022-08-28T02:32:24.969Z,13.60
2022-08-28T02:34:51.279Z,12.95
2022-08-28T02:37:17.587Z,12.52
2022-08-28T02:39:44.388Z,11.88
2022-08-28T02:42:10.696Z,12.55
2022-08-28T02:44:36.992Z,13.70
2022-08-28T02:47:03.884Z,12.57
2022-08-28T02:49:36.179Z,12.07
2022-08-28T02:52:02.593Z,13.30
2022-08-28T02:54:28.904Z,12.57
2022-08-28T02:56:55.311Z,12.23
2022-08-28T02:59:21.618Z,13.43
2022-08-28T03:01:48.484Z,14.38
2022-08-28T03:04:14.835Z,12.52
2022-08-28T03:06:42.005Z,13.88
2022-08-28T03:09:08.303Z,12.27
2022-08-28T03:11:34.603Z,13.57
2022-08-28T03:14:03.116Z,14.40
2022-08-28T03:16:29.468Z,14.02
2022-08-28T03:18:55.844Z,14.23
2022-08-28T03:21:22.218Z,14.45
2022-08-28T03:23:48.548Z,14.50
2022-08-28T03:26:14.852Z,13.32
2022-08-28T03:28:41.183Z,13.85
2022-08-28T03:31:07.547Z,14.00
2022-08-28T03:33:33.916Z,13.50
2022-08-28T03:36:00.231Z,14.05
2022-08-28T03:38:30.912Z,12.80
2022-08-28T03:40:57.499Z,12.13
2022-08-28T03:43:23.793Z,12.82
2022-08-28T03:45:50.994Z,13.45
2022-08-28T03:48:17.340Z,13.02
2022-08-28T03:50:43.696Z,11.52
2022-08-28T03:53:10.103Z,11.90
2022-08-28T03:55:36.705Z,10.90
2022-08-28T03:58:03.110Z,11.82
2022-08-28T04:00:29.448Z,9.68
2022-08-28T04:02:55.834Z,8.88
2022-08-28T04:05:22.407Z,8.05
2022-08-28T04:07:51.881Z,8.80
2022-08-28T04:10:18.187Z,8.70
2022-08-28T04:12:44.509Z,7.68
2022-08-28T04:15:10.817Z,8.40
2022-08-28T04:17:37.113Z,8.13
2022-08-28T04:20:03.559Z,8.35
2022-08-28T04:22:29.861Z,8.43
2022-08-28T04:24:56.285Z,8.63
2022-08-28T04:27:22.595Z,9.27
2022-08-28T04:29:49.138Z,8.98
2022-08-28T04:32:15.511Z,8.57
2022-08-28T04:34:41.900Z,8.50
2022-08-28T04:37:08.194Z,8.52
2022-08-28T04:39:34.496Z,8.43
2022-08-28T04:42:00.860Z,10.00
2022-08-28T04:44:27.168Z,9.02
2022-08-28T04:46:54.089Z,9.70
2022-08-28T04:49:20.472Z,9.88
2022-08-28T04:51:47.056Z,9.50
2022-08-28T04:54:13.485Z,9.85
2022-08-28T04:56:39.788Z,9.27
2022-08-28T04:59:06.771Z,8.75
2022-08-28T05:01:33.070Z,9.40
2022-08-28T05:03:59.406Z,8.50
2022-08-28T05:06:26.835Z,8.60
2022-08-28T05:08:54.419Z,8.27
2022-08-28T05:11:34.265Z,8.50
2022-08-28T05:14:01.045Z,8.23
2022-08-28T05:16:27.410Z,7.93
2022-08-28T05:18:53.781Z,7.90
2022-08-28T05:21:20.578Z,6.60
2022-08-28T05:23:46.886Z,6.63
2022-08-28T05:26:13.183Z,6.30
2022-08-28T05:28:40.429Z,6.35
2022-08-28T05:31:06.726Z,5.78
2022-08-28T05:33:33.028Z,5.22
2022-08-28T05:35:59.439Z,7.65
2022-08-28T05:38:25.833Z,5.00
2022-08-28T05:40:52.135Z,4.53
2022-08-28T05:43:18.468Z,5.05
2022-08-28T05:45:44.846Z,4.40
2022-08-28T05:48:11.910Z,3.97
2022-08-28T05:50:39.034Z,4.40
2022-08-28T05:53:09.350Z,5.05
2022-08-28T05:55:35.669Z,4.22
2022-08-28T05:58:21.976Z,5.85
2022-08-28T06:00:48.312Z,5.05
2022-08-28T06:03:14.885Z,4.50
2022-08-28T06:05:41.648Z,4.00
2022-08-28T06:08:08.218Z,4.85
2022-08-28T06:10:37.089Z,3.95
2022-08-28T06:13:04.912Z,4.03
2022-08-28T06:15:31.636Z,4.45
2022-08-28T06:17:57.961Z,3.88
2022-08-28T06:20:24.263Z,3.65
2022-08-28T06:22:50.731Z,4.65
2022-08-28T06:25:17.320Z,3.90
2022-08-28T06:27:43.644Z,3.53
2022-08-28T06:30:09.934Z,3.45
2022-08-28T06:32:36.261Z,3.85
2022-08-28T06:35:02.559Z,4.28
2022-08-28T06:37:29.417Z,3.17
2022-08-28T06:39:55.800Z,3.40
2022-08-28T06:42:22.146Z,3.58
2022-08-28T06:44:48.435Z,2.92
2022-08-28T06:47:15.285Z,4.00
2022-08-28T06:49:41.620Z,3.53
2022-08-28T06:52:07.922Z,3.40
2022-08-28T06:54:34.265Z,3.22
2022-08-28T06:57:00.588Z,3.15
2022-08-28T06:59:26.896Z,2.85
2022-08-28T07:01:54.370Z,3.33
2022-08-28T07:04:20.817Z,2.88
2022-08-28T07:06:53.650Z,3.25
2022-08-28T07:09:20.310Z,3.08
2022-08-28T07:11:46.752Z,3.35
2022-08-28T07:14:13.249Z,5.10
2022-08-28T07:16:39.590Z,3.03
2022-08-28T07:19:06.048Z,4.10
2022-08-28T07:21:32.614Z,2.67
2022-08-28T07:24:04.572Z,3.10
2022-08-28T07:26:30.884Z,3.80
2022-08-28T07:29:10.206Z,3.92
2022-08-28T07:31:37.800Z,3.50
2022-08-28T07:34:04.196Z,3.00
2022-08-28T07:36:30.569Z,2.72
2022-08-28T07:38:56.888Z,3.17
2022-08-28T07:41:23.572Z,2.60
2022-08-28T07:44:09.028Z,2.65
2022-08-28T07:46:35.392Z,2.50
2022-08-28T07:49:01.703Z,3.05
2022-08-28T07:51:28.056Z,2.92
2022-08-28T07:53:54.363Z,2.95
2022-08-28T07:56:20.663Z,2.97
2022-08-28T07:58:46.976Z,2.60
2022-08-28T08:01:13.360Z,3.05
2022-08-28T08:03:39.810Z,2.83
2022-08-28T08:06:06.167Z,2.35
2022-08-28T08:08:32.490Z,2.58
2022-08-28T08:10:59.155Z,3.03
2022-08-28T08:13:25.512Z,2.63
2022-08-28T08:15:51.876Z,2.65
2022-08-28T08:18:18.825Z,2.00
2022-08-28T08:20:48.676Z,3.00
2022-08-28T08:23:15.473Z,2.95
2022-08-28T08:25:41.781Z,2.53
2022-08-28T08:28:08.501Z,3.30
2022-08-28T08:33:02.198Z,3.58
2022-08-28T08:35:28.499Z,3.55
2022-08-28T08:37:54.821Z,2.90
2022-08-28T08:40:21.697Z,3.67
2022-08-28T08:42:48.036Z,2.95
2022-08-28T08:45:15.065Z,2.90
2022-08-28T08:47:41.345Z,2.60
2022-08-28T08:50:07.965Z,2.70
2022-08-28T08:52:34.351Z,2.47
2022-08-28T08:55:00.674Z,2.67
2022-08-28T08:57:27.026Z,3.13
2022-08-28T08:59:53.484Z,2.38
2022-08-28T09:02:21.228Z,3.65
2022-08-28T09:04:47.545Z,2.60
2022-08-28T09:07:13.844Z,3.20
2022-08-28T09:09:40.835Z,3.20
2022-08-28T09:12:07.078Z,2.93
2022-08-28T09:14:33.494Z,2.97
2022-08-28T09:16:59.838Z,3.30
2022-08-28T09:19:26.139Z,2.78
2022-08-28T09:21:52.440Z,3.55
2022-08-28T09:24:18.757Z,2.45
2022-08-28T09:26:45.063Z,3.10
2022-08-28T09:29:16.529Z,2.70
2022-08-28T09:31:44.041Z,2.63
2022-08-28T09:34:10.481Z,4.45
2022-08-28T09:36:36.778Z,3.13
2022-08-28T09:39:03.230Z,3.20
2022-08-28T09:41:48.347Z,4.55
2022-08-28T09:44:14.655Z,4.15
2022-08-28T09:46:44.874Z,3.45
2022-08-28T09:49:11.965Z,4.00
2022-08-28T09:51:39.389Z,3.17
2022-08-28T09:54:05.704Z,2.55
2022-08-28T09:56:34.987Z,3.30
2022-08-28T09:59:01.316Z,3.25
2022-08-28T10:01:27.834Z,4.53
2022-08-28T10:03:54.280Z,4.65
2022-08-28T10:06:20.665Z,3.95
2022-08-28T10:08:46.984Z,3.95
2022-08-28T10:11:13.286Z,3.60
2022-08-28T10:13:39.595Z,2.75
2022-08-28T10:16:06.241Z,3.53
2022-08-28T10:18:33.025Z,2.65
2022-08-28T10:23:27.450Z,3.38
2022-08-28T10:25:53.759Z,3.50
2022-08-28T10:28:20.159Z,2.78
2022-08-28T10:30:46.686Z,4.88
2022-08-28T10:33:13.058Z,3.45
2022-08-28T10:35:39.904Z,4.57
2022-08-28T10:38:06.239Z,4.03
2022-08-28T10:40:33.260Z,2.63
2022-08-28T10:42:59.627Z,2.90
2022-08-28T10:45:26.020Z,2.63
2022-08-28T10:47:52.360Z,3.10
2022-08-28T10:50:18.783Z,3.05
2022-08-28T10:52:45.105Z,2.75
2022-08-28T10:55:11.604Z,3.95
2022-08-28T10:57:39.921Z,3.30
2022-08-28T11:00:08.696Z,3.10
2022-08-28T11:02:35.218Z,3.17
2022-08-28T11:05:02.796Z,2.38
2022-08-28T11:07:29.092Z,2.50
2022-08-28T11:09:55.498Z,2.42
2022-08-28T11:12:22.431Z,3.75
2022-08-28T11:14:49.468Z,3.17
2022-08-28T11:17:15.777Z,3.15
2022-08-28T11:19:44.966Z,3.47
2022-08-28T11:22:12.632Z,2.63
2022-08-28T11:24:39.570Z,2.80
2022-08-28T11:27:10.049Z,2.95
2022-08-28T11:29:36.396Z,3.15
2022-08-28T11:32:02.721Z,2.72
2022-08-28T11:34:29.058Z,2.92
2022-08-28T11:36:55.360Z,2.80
2022-08-28T11:39:21.679Z,3.03
2022-08-28T11:41:47.979Z,2.53
2022-08-28T11:44:14.300Z,3.20
2022-08-28T11:46:40.663Z,3.15
2022-08-28T11:49:07.003Z,2.83
2022-08-28T11:51:33.307Z,2.97
2022-08-28T11:56:31.492Z,4.00
2022-08-28T11:58:58.221Z,2.72
2022-08-28T12:01:24.518Z,2.95
2022-08-28T12:03:50.852Z,3.75
2022-08-28T12:06:17.266Z,2.63
2022-08-28T12:08:43.591Z,3.95
2022-08-28T12:11:09.923Z,2.65
2022-08-28T12:13:36.233Z,3.10
2022-08-28T12:16:02.565Z,2.00
2022-08-28T12:18:28.947Z,2.72
2022-08-28T12:20:55.585Z,2.58
2022-08-28T12:23:21.884Z,2.80
2022-08-28T12:25:48.175Z,2.67
2022-08-28T12:28:14.481Z,3.05
2022-08-28T12:30:40.856Z,2.83
2022-08-28T12:33:07.367Z,2.40
2022-08-28T12:35:33.674Z,2.58
2022-08-28T12:37:59.998Z,2.20
2022-08-28T12:40:26.440Z,2.90
2022-08-28T12:42:55.283Z,2.88
2022-08-28T12:45:22.255Z,2.75
2022-08-28T12:47:48.556Z,2.17
2022-08-28T12:50:14.883Z,2.95
2022-08-28T12:52:41.181Z,5.07
2022-08-28T12:55:07.487Z,2.60
2022-08-28T12:57:34.149Z,3.03
2022-08-28T13:00:00.469Z,2.67
2022-08-28T13:02:27.326Z,2.40
2022-08-28T13:04:53.666Z,2.50
2022-08-28T13:07:21.875Z,3.38
2022-08-28T13:09:48.455Z,3.90
2022-08-28T13:12:14.760Z,4.97
2022-08-28T13:14:41.844Z,2.70
2022-08-28T13:17:08.139Z,3.08
2022-08-28T13:19:34.452Z,3.17
2022-08-28T13:22:01.860Z,2.40
2022-08-28T13:24:28.228Z,2.33
2022-08-28T13:26:54.520Z,2.10
2022-08-28T13:29:21.822Z,2.30
2022-08-28T13:31:48.125Z,2.00
2022-08-28T13:34:14.427Z,2.70
2022-08-28T13:36:41.060Z,2.80
2022-08-28T13:39:07.365Z,2.50
2022-08-28T13:41:33.887Z,2.58
2022-08-28T13:44:00.318Z,3.63
2022-08-28T13:46:26.684Z,2.20
2022-08-28T13:48:53.056Z,2.38
2022-08-28T13:51:21.052Z,2.20
2022-08-28T13:53:48.113Z,3.17
2022-08-28T13:56:16.001Z,1.80
2022-08-28T13:58:42.309Z,2.70
2022-08-28T14:01:08.713Z,2.25
2022-08-28T14:03:41.110Z,2.30
2022-08-28T14:06:07.427Z,2.13
2022-08-28T14:08:33.723Z,2.78
2022-08-28T14:11:00.049Z,2.80
2022-08-28T14:13:27.782Z,2.53
2022-08-28T14:18:20.820Z,2.50
2022-08-28T14:20:47.143Z,3.13
2022-08-28T14:23:15.943Z,2.25
2022-08-28T14:25:42.351Z,2.95
2022-08-28T14:28:08.651Z,3.33
2022-08-28T14:30:36.922Z,2.30
2022-08-28T14:33:03.235Z,2.33
2022-08-28T14:35:29.537Z,2.67
2022-08-28T14:37:55.836Z,2.95
2022-08-28T14:40:22.175Z,2.78
2022-08-28T14:42:48.536Z,2.35
2022-08-28T14:45:14.897Z,2.85
2022-08-28T14:47:41.365Z,2.30
2022-08-28T14:50:07.736Z,2.42
2022-08-28T14:52:34.179Z,2.28
2022-08-28T14:55:00.479Z,2.90
2022-08-28T14:57:26.800Z,2.88
2022-08-28T14:59:53.112Z,2.13
2022-08-28T15:02:19.420Z,2.17
2022-08-28T15:04:45.769Z,2.63
2022-08-28T15:07:12.882Z,2.25
2022-08-28T15:09:39.206Z,2.17
2022-08-28T15:12:05.628Z,2.13
2022-08-28T15:14:31.929Z,2.38
2022-08-28T15:16:58.391Z,2.30
2022-08-28T15:19:24.739Z,2.20
2022-08-28T15:21:51.189Z,2.53
2022-08-28T15:24:17.503Z,2.05
2022-08-28T15:26:43.828Z,2.17
2022-08-28T15:29:11.851Z,2.78
2022-08-28T15:31:38.189Z,2.45
2022-08-28T15:34:04.550Z,1.75
2022-08-28T15:36:32.474Z,2.13
2022-08-28T15:39:17.772Z,2.03
2022-08-28T15:41:44.251Z,2.38
2022-08-28T15:44:14.865Z,1.92
2022-08-28T15:46:41.604Z,2.30
2022-08-28T15:49:07.930Z,1.92
2022-08-28T15:56:45.264Z,2.88
2022-08-28T15:59:12.508Z,2.15
2022-08-28T16:01:38.841Z,2.88
2022-08-28T16:04:05.176Z,2.60
2022-08-28T16:06:31.474Z,2.17
2022-08-28T16:08:58.552Z,2.05
2022-08-28T16:11:24.867Z,1.95
2022-08-28T16:13:51.181Z,2.30
2022-08-28T16:16:17.505Z,2.38
2022-08-28T16:18:43.864Z,3.25
2022-08-28T16:21:10.194Z,3.05
2022-08-28T16:23:36.497Z,2.30
2022-08-28T16:26:03.427Z,1.92
2022-08-28T16:28:31.275Z,3.30
2022-08-28T16:30:57.576Z,1.92
2022-08-28T16:33:23.911Z,2.90
2022-08-28T16:35:51.541Z,2.00
2022-08-28T16:38:22.170Z,2.70
2022-08-28T16:40:48.477Z,1.92
2022-08-28T16:43:15.124Z,2.00
2022-08-28T16:45:41.423Z,2.15
2022-08-28T16:48:07.722Z,1.90
2022-08-28T16:50:34.025Z,2.10
2022-08-28T16:53:04.802Z,2.13
2022-08-28T16:55:33.059Z,2.67
2022-08-28T16:57:59.522Z,2.85
2022-08-28T17:00:25.841Z,2.03
2022-08-28T17:02:52.144Z,2.00
2022-08-28T17:05:19.473Z,1.70
2022-08-28T17:07:45.769Z,2.20
2022-08-28T17:10:12.109Z,2.17
2022-08-28T17:12:38.426Z,1.65
2022-08-28T17:15:04.757Z,1.88
2022-08-28T17:17:31.057Z,2.60
2022-08-28T17:19:57.951Z,1.75
2022-08-28T17:22:33.511Z,1.98
2022-08-28T17:24:59.879Z,1.65
2022-08-28T17:27:26.184Z,2.38
2022-08-28T17:29:52.915Z,1.80
2022-08-28T17:32:19.259Z,2.35
2022-08-28T17:34:45.568Z,1.75
2022-08-28T17:37:11.880Z,2.35
2022-08-28T17:39:38.181Z,1.65
2022-08-28T17:42:04.490Z,2.10
2022-08-28T17:44:30.796Z,2.38
2022-08-28T17:46:57.143Z,2.72
2022-08-28T17:49:23.515Z,1.90
2022-08-28T17:51:49.812Z,2.15
2022-08-28T17:54:16.669Z,1.98
2022-08-28T17:56:42.935Z,2.13
2022-08-28T17:59:10.043Z,2.78
2022-08-28T18:01:36.428Z,2.15
2022-08-28T18:04:02.824Z,2.17
2022-08-28T18:06:29.124Z,2.78
2022-08-28T18:08:55.575Z,1.80
2022-08-28T18:11:21.893Z,2.00
2022-08-28T18:13:48.192Z,3.15
2022-08-28T18:16:14.536Z,2.17
2022-08-28T18:18:41.382Z,1.77
2022-08-28T18:21:07.692Z,2.38
2022-08-28T18:23:34.000Z,2.25
2022-08-28T18:26:00.292Z,2.10
2022-08-28T18:28:26.663Z,2.78
2022-08-28T18:30:52.990Z,2.42
2022-08-28T18:33:19.449Z,2.20
2022-08-28T18:35:49.226Z,2.20
2022-08-28T18:38:16.076Z,2.13
2022-08-28T18:40:42.402Z,2.65
2022-08-28T18:43:08.704Z,2.03
2022-08-28T18:45:35.040Z,2.40
2022-08-28T18:48:01.340Z,2.05
2022-08-28T18:50:28.296Z,2.50
2022-08-28T18:52:54.530Z,2.97
2022-08-28T18:55:20.865Z,1.88
2022-08-28T18:57:47.173Z,2.25
2022-08-28T19:00:15.673Z,2.92
2022-08-28T19:02:42.091Z,2.20
2022-08-28T19:05:08.523Z,2.30
2022-08-28T19:07:34.852Z,2.35
2022-08-28T19:10:01.153Z,3.40
2022-08-28T19:12:27.484Z,2.72
2022-08-28T19:14:53.865Z,2.63
2022-08-28T19:17:21.181Z,2.95
2022-08-28T19:19:47.575Z,3.05
2022-08-28T19:22:14.032Z,2.90
2022-08-28T19:24:40.324Z,2.80
2022-08-28T19:27:06.695Z,3.78
2022-08-28T19:29:32.993Z,2.78
2022-08-28T19:31:59.309Z,3.67
2022-08-28T19:34:25.608Z,3.30
2022-08-28T19:36:51.907Z,3.28
2022-08-28T19:39:18.208Z,2.95
2022-08-28T19:41:44.530Z,2.50
2022-08-28T19:44:10.812Z,2.97
2022-08-28T19:46:37.166Z,2.70
2022-08-28T19:49:04.709Z,2.67
2022-08-28T19:51:31.025Z,2.88
2022-08-28T19:53:58.919Z,2.83
2022-08-28T19:56:27.184Z,2.45
2022-08-28T19:58:54.592Z,2.65
2022-08-28T20:01:20.997Z,3.30
2022-08-28T20:03:47.503Z,2.70
2022-08-28T20:06:13.845Z,3.40
2022-08-28T20:08:40.139Z,2.88
2022-08-28T20:11:06.433Z,2.58
2022-08-28T20:13:32.727Z,2.63
2022-08-28T20:15:59.071Z,3.20
2022-08-28T20:18:26.141Z,2.70
2022-08-28T20:20:52.505Z,2.85
2022-08-28T20:23:18.808Z,2.83
2022-08-28T20:25:45.092Z,4.20
2022-08-28T20:28:11.396Z,3.00
2022-08-28T20:30:37.723Z,2.45
2022-08-28T20:33:04.062Z,3.15
2022-08-28T20:35:30.432Z,2.92
2022-08-28T20:37:56.748Z,3.60
2022-08-28T20:40:23.127Z,3.00
2022-08-28T20:42:49.447Z,2.88
2022-08-28T21:02:11.825Z,3.40
2022-08-28T21:04:38.809Z,3.17
2022-08-28T21:07:05.280Z,3.30
2022-08-28T21:10:03.776Z,2.72
2022-08-28T21:12:17.901Z,4.03
2022-08-28T21:14:44.281Z,3.08
2022-08-28T21:17:18.354Z,3.30
2022-08-28T21:19:56.596Z,3.97
2022-08-28T21:22:22.891Z,2.97
2022-08-28T21:24:49.678Z,3.58
2022-08-28T21:27:15.982Z,3.17
2022-08-28T21:29:44.872Z,3.22
2022-08-28T21:32:11.201Z,3.00
2022-08-28T21:34:37.527Z,3.53
2022-08-28T21:37:03.912Z,3.90
2022-08-28T21:39:31.215Z,3.60
2022-08-28T21:41:57.707Z,3.53
2022-08-28T21:44:25.137Z,3.45
2022-08-28T21:46:51.448Z,3.17
2022-08-28T21:49:17.735Z,3.63
2022-08-28T21:51:44.066Z,3.53
2022-08-28T21:54:10.401Z,4.05
2022-08-28T21:56:36.761Z,3.28
2022-08-28T21:59:03.056Z,3.10
2022-08-28T22:01:29.465Z,3.22
2022-08-28T22:03:55.850Z,3.92
2022-08-28T22:06:22.170Z,3.75
2022-08-28T22:08:48.472Z,3.33
2022-08-28T22:11:14.777Z,3.60
2022-08-28T22:13:43.328Z,3.40
2022-08-28T22:16:09.683Z,3.35
2022-08-28T22:18:35.996Z,3.78
2022-08-28T22:21:21.013Z,4.40
2022-08-28T22:23:47.315Z,3.50
2022-08-28T22:26:13.611Z,3.33
2022-08-28T22:28:39.908Z,3.45
2022-08-28T22:31:06.242Z,3.15
2022-08-28T22:33:32.561Z,3.38
2022-08-28T22:35:58.867Z,3.60
2022-08-28T22:38:25.229Z,4.13
2022-08-28T22:40:51.531Z,3.83
2022-08-28T22:43:17.832Z,3.75
2022-08-28T22:45:46.058Z,3.55
2022-08-28T22:48:12.570Z,3.00
2022-08-28T22:50:38.933Z,3.63
2022-08-28T22:53:05.239Z,3.22
2022-08-28T22:55:31.537Z,3.20
2022-08-28T22:57:57.846Z,3.55
2022-08-28T23:00:24.137Z,4.07
2022-08-28T23:02:50.762Z,4.10
2022-08-28T23:05:17.100Z,3.40
2022-08-28T23:07:43.409Z,4.18
2022-08-28T23:10:09.703Z,3.05
2022-08-28T23:12:35.998Z,3.00
2022-08-28T23:15:02.292Z,3.88
2022-08-28T23:17:28.584Z,3.30
2022-08-28T23:19:54.952Z,3.80
2022-08-28T23:22:21.243Z,3.78
2022-08-28T23:24:48.600Z,3.45
2022-08-28T23:27:35.170Z,3.17
2022-08-28T23:30:01.200Z,3.30
2022-08-28T23:32:27.511Z,3.70
2022-08-28T23:34:54.741Z,3.70
2022-08-28T23:37:21.338Z,3.30
2022-08-28T23:39:48.925Z,3.20
2022-08-28T23:42:15.415Z,3.10
2022-08-28T23:44:41.796Z,5.28
2022-08-28T23:47:08.341Z,3.03
2022-08-28T23:49:34.703Z,3.88
2022-08-28T23:52:09.184Z,3.88
2022-08-28T23:54:36.390Z,3.83
2022-08-28T23:57:03.707Z,3.22
2022-08-28T23:59:31.649Z,3.78
